sensor_id;sensor_type;location;lat;lon;timestamp;P1;durP1;ratioP1;P2;durP2;ratioP2
28427;SDS011;15662;49.128;8.520;2022-08-27T00:02:19;7.57;;;6.88;;
28427;SDS011;15662;49.128;8.520;2022-08-27T00:04:48;6.90;;;6.25;;
28427;SDS011;15662;49.128;8.520;2022-08-27T00:07:16;6.45;;;5.85;;
28427;SDS011;15662;49.128;8.520;2022-08-27T00:09:44;7.70;;;6.10;;
28427;SDS011;15662;49.128;8.520;2022-08-27T00:12:12;6.85;;;6.25;;
28427;SDS011;15662;49.128;8.520;2022-08-27T00:14:40;6.90;;;6.30;;
28427;SDS011;15662;49.128;8.520;2022-08-27T00:17:10;6.47;;;5.97;;
28427;SDS011;15662;49.128;8.520;2022-08-27T00:19:40;7.13;;;6.53;;
28427;SDS011;15662;49.128;8.520;2022-08-27T00:22:08;7.20;;;6.53;;
28427;SDS011;15662;49.128;8.520;2022-08-27T00:24:39;7.57;;;6.88;;
28427;SDS011;15662;49.128;8.520;2022-08-27T00:27:16;7.65;;;6.95;;
28427;SDS011;15662;49.128;8.520;2022-08-27T00:29:46;7.72;;;7.03;;
28427;SDS011;15662;49.128;8.520;2022-08-27T00:32:15;7.60;;;7.00;;
28427;SDS011;15662;49.128;8.520;2022-08-27T00:34:44;8.48;;;7.78;;
28427;SDS011;15662;49.128;8.520;2022-08-27T00:37:12;9.90;;;8.98;;
28427;SDS011;15662;49.128;8.520;2022-08-27T00:39:40;10.15;;;9.18;;
28427;SDS011;15662;49.128;8.520;2022-08-27T00:42:09;11.45;;;10.43;;
28427;SDS011;15662;49.128;8.520;2022-08-27T00:44:37;11.25;;;10.25;;
28427;SDS011;15662;49.128;8.520;2022-08-27T00:47:06;11.23;;;10.27;;
28427;SDS011;15662;49.128;8.520;2022-08-27T00:55:07;11.75;;;10.80;;
28427;SDS011;15662;49.128;8.520;2022-08-27T00:57:42;11.95;;;10.95;;
28427;SDS011;15662;49.128;8.520;2022-08-27T01:00:14;13.40;;;12.18;;
28427;SDS011;15662;49.128;8.520;2022-08-27T01:02:48;13.73;;;12.43;;
28427;SDS011;15662;49.128;8.520;2022-08-27T01:05:17;13.77;;;12.48;;
28427;SDS011;15662;49.128;8.520;2022-08-27T01:07:49;12.70;;;11.40;;
28427;SDS011;15662;49.128;8.520;2022-08-27T01:10:23;12.45;;;11.40;;
28427;SDS011;15662;49.128;8.520;2022-08-27T01:12:55;13.25;;;12.05;;
28427;SDS011;15662;49.128;8.520;2022-08-27T01:15:27;12.68;;;11.45;;
28427;SDS011;15662;49.128;8.520;2022-08-27T01:17:56;13.55;;;11.85;;
28427;SDS011;15662;49.128;8.520;2022-08-27T01:20:29;13.10;;;11.93;;
28427;SDS011;15662;49.128;8.520;2022-08-27T01:23:12;13.70;;;12.45;;
28427;SDS011;15662;49.128;8.520;2022-08-27T01:26:12;13.85;;;12.65;;
28427;SDS011;15662;49.128;8.520;2022-08-27T01:28:43;14.35;;;13.02;;
28427;SDS011;15662;49.128;8.520;2022-08-27T01:31:11;15.40;;;13.90;;
28427;SDS011;15662;49.128;8.520;2022-08-27T01:33:40;14.52;;;13.13;;
28427;SDS011;15662;49.128;8.520;2022-08-27T01:36:19;14.30;;;12.90;;
28427;SDS011;15662;49.128;8.520;2022-08-27T01:38:48;14.35;;;13.05;;
28427;SDS011;15662;49.128;8.520;2022-08-27T01:41:17;14.55;;;13.15;;
28427;SDS011;15662;49.128;8.520;2022-08-27T01:43:47;14.40;;;13.10;;
28427;SDS011;15662;49.128;8.520;2022-08-27T01:46:19;14.68;;;13.38;;
28427;SDS011;15662;49.128;8.520;2022-08-27T01:48:51;15.15;;;13.63;;
28427;SDS011;15662;49.128;8.520;2022-08-27T01:51:20;15.32;;;13.88;;
28427;SDS011;15662;49.128;8.520;2022-08-27T01:53:49;15.88;;;14.38;;
28427;SDS011;15662;49.128;8.520;2022-08-27T01:56:18;15.55;;;14.02;;
28427;SDS011;15662;49.128;8.520;2022-08-27T01:58:46;15.93;;;14.32;;
28427;SDS011;15662;49.128;8.520;2022-08-27T02:01:17;16.27;;;14.57;;
28427;SDS011;15662;49.128;8.520;2022-08-27T02:03:46;16.45;;;14.95;;
28427;SDS011;15662;49.128;8.520;2022-08-27T02:06:14;15.43;;;13.95;;
28427;SDS011;15662;49.128;8.520;2022-08-27T02:08:44;15.98;;;14.50;;
28427;SDS011;15662;49.128;8.520;2022-08-27T02:11:12;15.95;;;14.43;;
28427;SDS011;15662;49.128;8.520;2022-08-27T02:13:41;16.30;;;14.55;;
28427;SDS011;15662;49.128;8.520;2022-08-27T02:16:09;15.90;;;14.48;;
28427;SDS011;15662;49.128;8.520;2022-08-27T02:18:37;15.63;;;14.18;;
28427;SDS011;15662;49.128;8.520;2022-08-27T02:21:08;16.70;;;15.05;;
28427;SDS011;15662;49.128;8.520;2022-08-27T02:23:37;16.17;;;14.68;;
28427;SDS011;15662;49.128;8.520;2022-08-27T02:26:06;16.10;;;14.45;;
28427;SDS011;15662;49.128;8.520;2022-08-27T02:31:05;15.55;;;14.05;;
28427;SDS011;15662;49.128;8.520;2022-08-27T02:33:34;16.08;;;14.48;;
28427;SDS011;15662;49.128;8.520;2022-08-27T02:36:02;16.77;;;15.18;;
28427;SDS011;15662;49.128;8.520;2022-08-27T02:38:32;16.48;;;14.95;;
28427;SDS011;15662;49.128;8.520;2022-08-27T02:41:00;16.85;;;15.13;;
28427;SDS011;15662;49.128;8.520;2022-08-27T02:43:30;14.93;;;13.52;;
28427;SDS011;15662;49.128;8.520;2022-08-27T02:46:02;14.85;;;13.45;;
28427;SDS011;15662;49.128;8.520;2022-08-27T02:48:34;14.68;;;13.38;;
28427;SDS011;15662;49.128;8.520;2022-08-27T02:51:07;14.30;;;13.00;;
28427;SDS011;15662;49.128;8.520;2022-08-27T02:53:35;13.63;;;12.50;;
28427;SDS011;15662;49.128;8.520;2022-08-27T02:56:05;13.80;;;12.50;;
28427;SDS011;15662;49.128;8.520;2022-08-27T02:58:34;13.98;;;12.68;;
28427;SDS011;15662;49.128;8.520;2022-08-27T03:01:03;14.32;;;13.02;;
28427;SDS011;15662;49.128;8.520;2022-08-27T03:03:37;13.48;;;12.27;;
28427;SDS011;15662;49.128;8.520;2022-08-27T03:06:06;13.85;;;12.52;;
28427;SDS011;15662;49.128;8.520;2022-08-27T03:08:34;14.43;;;13.13;;
28427;SDS011;15662;49.128;8.520;2022-08-27T03:11:20;15.38;;;14.02;;
28427;SDS011;15662;49.128;8.520;2022-08-27T03:13:50;15.18;;;13.77;;
28427;SDS011;15662;49.128;8.520;2022-08-27T03:16:18;14.93;;;13.50;;
28427;SDS011;15662;49.128;8.520;2022-08-27T03:18:47;16.10;;;14.50;;
28427;SDS011;15662;49.128;8.520;2022-08-27T03:21:20;15.93;;;14.32;;
28427;SDS011;15662;49.128;8.520;2022-08-27T03:23:51;15.40;;;13.98;;
28427;SDS011;15662;49.128;8.520;2022-08-27T03:26:20;16.25;;;14.73;;
28427;SDS011;15662;49.128;8.520;2022-08-27T03:28:49;15.80;;;14.40;;
28427;SDS011;15662;49.128;8.520;2022-08-27T03:31:20;15.75;;;14.27;;
28427;SDS011;15662;49.128;8.520;2022-08-27T03:36:34;15.37;;;13.97;;
28427;SDS011;15662;49.128;8.520;2022-08-27T03:39:02;15.27;;;13.98;;
28427;SDS011;15662;49.128;8.520;2022-08-27T03:41:31;16.02;;;14.45;;
28427;SDS011;15662;49.128;8.520;2022-08-27T03:44:20;15.90;;;14.40;;
28427;SDS011;15662;49.128;8.520;2022-08-27T03:46:51;16.27;;;14.70;;
28427;SDS011;15662;49.128;8.520;2022-08-27T03:49:20;16.40;;;14.80;;
28427;SDS011;15662;49.128;8.520;2022-08-27T03:51:50;16.85;;;15.25;;
28427;SDS011;15662;49.128;8.520;2022-08-27T03:54:19;16.95;;;15.38;;
28427;SDS011;15662;49.128;8.520;2022-08-27T03:56:49;16.77;;;15.25;;
28427;SDS011;15662;49.128;8.520;2022-08-27T03:59:19;17.45;;;15.68;;
28427;SDS011;15662;49.128;8.520;2022-08-27T04:01:47;17.20;;;15.50;;
28427;SDS011;15662;49.128;8.520;2022-08-27T04:04:16;16.85;;;15.13;;
28427;SDS011;15662;49.128;8.520;2022-08-27T04:06:44;17.92;;;16.25;;
28427;SDS011;15662;49.128;8.520;2022-08-27T04:09:13;18.42;;;16.52;;
28427;SDS011;15662;49.128;8.520;2022-08-27T04:11:42;18.27;;;16.55;;
28427;SDS011;15662;49.128;8.520;2022-08-27T04:14:12;17.70;;;16.10;;
28427;SDS011;15662;49.128;8.520;2022-08-27T04:16:54;17.95;;;16.15;;
28427;SDS011;15662;49.128;8.520;2022-08-27T04:19:24;18.38;;;15.70;;
28427;SDS011;15662;49.128;8.520;2022-08-27T04:22:01;18.30;;;16.60;;
28427;SDS011;15662;49.128;8.520;2022-08-27T04:24:33;18.70;;;16.92;;
28427;SDS011;15662;49.128;8.520;2022-08-27T04:27:03;18.17;;;16.40;;
28427;SDS011;15662;49.128;8.520;2022-08-27T04:29:33;19.30;;;17.40;;
28427;SDS011;15662;49.128;8.520;2022-08-27T04:32:03;18.63;;;16.73;;
28427;SDS011;15662;49.128;8.520;2022-08-27T04:34:31;19.33;;;17.50;;
28427;SDS011;15662;49.128;8.520;2022-08-27T04:37:00;19.75;;;17.88;;
28427;SDS011;15662;49.128;8.520;2022-08-27T04:39:30;19.73;;;17.85;;
28427;SDS011;15662;49.128;8.520;2022-08-27T04:41:59;19.10;;;17.15;;
28427;SDS011;15662;49.128;8.520;2022-08-27T04:44:30;19.00;;;17.25;;
28427;SDS011;15662;49.128;8.520;2022-08-27T04:47:02;20.40;;;18.40;;
28427;SDS011;15662;49.128;8.520;2022-08-27T04:49:32;19.08;;;17.17;;
28427;SDS011;15662;49.128;8.520;2022-08-27T04:52:00;19.33;;;17.40;;
28427;SDS011;15662;49.128;8.520;2022-08-27T04:54:32;20.05;;;18.02;;
28427;SDS011;15662;49.128;8.520;2022-08-27T04:57:02;18.73;;;17.00;;
28427;SDS011;15662;49.128;8.520;2022-08-27T04:59:33;19.35;;;17.55;;
28427;SDS011;15662;49.128;8.520;2022-08-27T05:02:03;20.30;;;18.25;;
28427;SDS011;15662;49.128;8.520;2022-08-27T05:04:36;19.55;;;17.60;;
28427;SDS011;15662;49.128;8.520;2022-08-27T05:07:07;19.55;;;17.65;;
28427;SDS011;15662;49.128;8.520;2022-08-27T05:09:37;19.70;;;17.83;;
28427;SDS011;15662;49.128;8.520;2022-08-27T05:12:05;19.17;;;17.38;;
28427;SDS011;15662;49.128;8.520;2022-08-27T05:14:34;18.80;;;16.98;;
28427;SDS011;15662;49.128;8.520;2022-08-27T05:17:04;18.27;;;16.48;;
28427;SDS011;15662;49.128;8.520;2022-08-27T05:19:32;19.35;;;17.42;;
28427;SDS011;15662;49.128;8.520;2022-08-27T05:22:00;18.70;;;16.80;;
28427;SDS011;15662;49.128;8.520;2022-08-27T05:24:28;19.38;;;17.48;;
28427;SDS011;15662;49.128;8.520;2022-08-27T05:26:58;18.70;;;16.88;;
28427;SDS011;15662;49.128;8.520;2022-08-27T05:29:27;18.73;;;16.92;;
28427;SDS011;15662;49.128;8.520;2022-08-27T05:31:58;18.02;;;16.33;;
28427;SDS011;15662;49.128;8.520;2022-08-27T05:34:26;18.45;;;16.65;;
28427;SDS011;15662;49.128;8.520;2022-08-27T05:36:56;18.45;;;16.73;;
28427;SDS011;15662;49.128;8.520;2022-08-27T05:39:25;18.85;;;17.13;;
28427;SDS011;15662;49.128;8.520;2022-08-27T05:41:57;18.85;;;17.08;;
28427;SDS011;15662;49.128;8.520;2022-08-27T05:44:25;17.33;;;15.70;;
28427;SDS011;15662;49.128;8.520;2022-08-27T05:47:08;18.05;;;16.40;;
28427;SDS011;15662;49.128;8.520;2022-08-27T05:49:36;18.25;;;16.60;;
28427;SDS011;15662;49.128;8.520;2022-08-27T05:52:12;19.75;;;17.95;;
28427;SDS011;15662;49.128;8.520;2022-08-27T05:54:41;18.92;;;17.13;;
28427;SDS011;15662;49.128;8.520;2022-08-27T05:57:11;18.60;;;16.80;;
28427;SDS011;15662;49.128;8.520;2022-08-27T05:59:39;18.50;;;16.63;;
28427;SDS011;15662;49.128;8.520;2022-08-27T06:02:42;18.58;;;16.70;;
28427;SDS011;15662;49.128;8.520;2022-08-27T06:05:11;18.95;;;17.15;;
28427;SDS011;15662;49.128;8.520;2022-08-27T06:07:40;18.48;;;16.67;;
28427;SDS011;15662;49.128;8.520;2022-08-27T06:10:08;17.77;;;15.90;;
28427;SDS011;15662;49.128;8.520;2022-08-27T06:12:37;17.73;;;16.02;;
28427;SDS011;15662;49.128;8.520;2022-08-27T06:15:06;17.52;;;15.70;;
28427;SDS011;15662;49.128;8.520;2022-08-27T06:17:36;17.48;;;15.85;;
28427;SDS011;15662;49.128;8.520;2022-08-27T06:20:05;18.40;;;16.70;;
28427;SDS011;15662;49.128;8.520;2022-08-27T06:22:37;16.92;;;15.35;;
28427;SDS011;15662;49.128;8.520;2022-08-27T06:25:18;16.63;;;15.10;;
28427;SDS011;15662;49.128;8.520;2022-08-27T06:28:06;16.35;;;14.75;;
28427;SDS011;15662;49.128;8.520;2022-08-27T06:30:34;16.58;;;15.05;;
28427;SDS011;15662;49.128;8.520;2022-08-27T06:33:02;16.27;;;14.80;;
28427;SDS011;15662;49.128;8.520;2022-08-27T06:35:33;16.30;;;13.95;;
28427;SDS011;15662;49.128;8.520;2022-08-27T06:38:01;15.77;;;14.38;;
28427;SDS011;15662;49.128;8.520;2022-08-27T06:40:30;15.60;;;13.82;;
28427;SDS011;15662;49.128;8.520;2022-08-27T06:42:58;15.35;;;13.85;;
28427;SDS011;15662;49.128;8.520;2022-08-27T06:45:27;14.75;;;13.35;;
28427;SDS011;15662;49.128;8.520;2022-08-27T06:47:58;14.82;;;13.43;;
28427;SDS011;15662;49.128;8.520;2022-08-27T06:50:26;14.75;;;13.35;;
28427;SDS011;15662;49.128;8.520;2022-08-27T06:52:54;14.90;;;13.65;;
28427;SDS011;15662;49.128;8.520;2022-08-27T06:55:22;14.95;;;13.52;;
28427;SDS011;15662;49.128;8.520;2022-08-27T06:57:51;14.10;;;12.88;;
28427;SDS011;15662;49.128;8.520;2022-08-27T07:00:19;14.25;;;12.95;;
28427;SDS011;15662;49.128;8.520;2022-08-27T07:02:49;15.32;;;13.75;;
28427;SDS011;15662;49.128;8.520;2022-08-27T07:05:18;14.75;;;13.27;;
28427;SDS011;15662;49.128;8.520;2022-08-27T07:07:47;15.15;;;13.75;;
28427;SDS011;15662;49.128;8.520;2022-08-27T07:10:15;14.27;;;12.90;;
28427;SDS011;15662;49.128;8.520;2022-08-27T07:12:44;14.65;;;13.30;;
28427;SDS011;15662;49.128;8.520;2022-08-27T07:15:12;14.35;;;13.05;;
28427;SDS011;15662;49.128;8.520;2022-08-27T07:17:41;14.57;;;13.13;;
28427;SDS011;15662;49.128;8.520;2022-08-27T07:20:12;14.02;;;12.73;;
28427;SDS011;15662;49.128;8.520;2022-08-27T07:22:44;13.50;;;12.20;;
28427;SDS011;15662;49.128;8.520;2022-08-27T07:25:15;14.38;;;12.68;;
28427;SDS011;15662;49.128;8.520;2022-08-27T07:27:49;13.45;;;12.20;;
28427;SDS011;15662;49.128;8.520;2022-08-27T07:30:18;12.70;;;11.60;;
28427;SDS011;15662;49.128;8.520;2022-08-27T07:32:46;12.52;;;11.27;;
28427;SDS011;15662;49.128;8.520;2022-08-27T07:35:16;12.82;;;11.63;;
28427;SDS011;15662;49.128;8.520;2022-08-27T07:37:44;13.02;;;11.75;;
28427;SDS011;15662;49.128;8.520;2022-08-27T07:40:14;16.00;;;11.85;;
28427;SDS011;15662;49.128;8.520;2022-08-27T07:42:43;13.50;;;12.10;;
28427;SDS011;15662;49.128;8.520;2022-08-27T07:45:32;11.60;;;10.60;;
28427;SDS011;15662;49.128;8.520;2022-08-27T07:48:00;11.50;;;10.57;;
28427;SDS011;15662;49.128;8.520;2022-08-27T07:50:28;14.38;;;11.38;;
28427;SDS011;15662;49.128;8.520;2022-08-27T07:52:57;12.13;;;10.77;;
28427;SDS011;15662;49.128;8.520;2022-08-27T07:55:25;11.20;;;9.93;;
28427;SDS011;15662;49.128;8.520;2022-08-27T07:57:55;14.90;;;13.40;;
28427;SDS011;15662;49.128;8.520;2022-08-27T08:00:25;14.23;;;11.02;;
28427;SDS011;15662;49.128;8.520;2022-08-27T08:02:54;12.10;;;10.88;;
28427;SDS011;15662;49.128;8.520;2022-08-27T08:05:23;13.13;;;11.55;;
28427;SDS011;15662;49.128;8.520;2022-08-27T08:07:52;11.18;;;10.10;;
28427;SDS011;15662;49.128;8.520;2022-08-27T08:10:20;13.38;;;10.32;;
28427;SDS011;15662;49.128;8.520;2022-08-27T08:12:49;10.73;;;9.65;;
28427;SDS011;15662;49.128;8.520;2022-08-27T08:15:18;10.55;;;9.55;;
28427;SDS011;15662;49.128;8.520;2022-08-27T08:17:47;11.60;;;10.60;;
28427;SDS011;15662;49.128;8.520;2022-08-27T08:20:15;15.88;;;10.20;;
28427;SDS011;15662;49.128;8.520;2022-08-27T08:23:05;12.02;;;10.30;;
28427;SDS011;15662;49.128;8.520;2022-08-27T08:25:37;12.85;;;11.18;;
28427;SDS011;15662;49.128;8.520;2022-08-27T08:28:07;11.57;;;10.38;;
28427;SDS011;15662;49.128;8.520;2022-08-27T08:30:38;11.52;;;10.32;;
28427;SDS011;15662;49.128;8.520;2022-08-27T08:33:09;11.20;;;10.02;;
28427;SDS011;15662;49.128;8.520;2022-08-27T08:35:39;11.35;;;10.25;;
28427;SDS011;15662;49.128;8.520;2022-08-27T08:38:08;11.73;;;10.57;;
28427;SDS011;15662;49.128;8.520;2022-08-27T08:40:38;11.45;;;10.32;;
28427;SDS011;15662;49.128;8.520;2022-08-27T08:43:23;11.32;;;10.27;;
28427;SDS011;15662;49.128;8.520;2022-08-27T08:46:12;11.68;;;10.38;;
28427;SDS011;15662;49.128;8.520;2022-08-27T08:49:01;10.75;;;9.70;;
28427;SDS011;15662;49.128;8.520;2022-08-27T08:52:03;11.83;;;10.33;;
28427;SDS011;15662;49.128;8.520;2022-08-27T08:54:59;12.75;;;10.32;;
28427;SDS011;15662;49.128;8.520;2022-08-27T08:57:38;11.48;;;10.27;;
28427;SDS011;15662;49.128;8.520;2022-08-27T09:00:20;10.90;;;9.88;;
28427;SDS011;15662;49.128;8.520;2022-08-27T09:02:49;11.25;;;10.25;;
28427;SDS011;15662;49.128;8.520;2022-08-27T09:05:21;11.82;;;10.65;;
28427;SDS011;15662;49.128;8.520;2022-08-27T09:11:04;10.85;;;9.85;;
28427;SDS011;15662;49.128;8.520;2022-08-27T09:13:55;11.73;;;10.70;;
28427;SDS011;15662;49.128;8.520;2022-08-27T09:16:27;12.38;;;11.18;;
28427;SDS011;15662;49.128;8.520;2022-08-27T09:18:56;12.45;;;11.18;;
28427;SDS011;15662;49.128;8.520;2022-08-27T09:21:35;12.57;;;11.38;;
28427;SDS011;15662;49.128;8.520;2022-08-27T09:26:50;12.68;;;11.38;;
28427;SDS011;15662;49.128;8.520;2022-08-27T09:29:23;15.00;;;11.95;;
28427;SDS011;15662;49.128;8.520;2022-08-27T09:34:34;12.32;;;11.02;;
28427;SDS011;15662;49.128;8.520;2022-08-27T09:37:13;12.80;;;11.60;;
28427;SDS011;15662;49.128;8.520;2022-08-27T09:40:01;13.00;;;11.70;;
28427;SDS011;15662;49.128;8.520;2022-08-27T09:42:53;13.02;;;11.30;;
28427;SDS011;15662;49.128;8.520;2022-08-27T09:45:32;12.25;;;11.05;;
28427;SDS011;15662;49.128;8.520;2022-08-27T09:48:09;13.33;;;12.03;;
28427;SDS011;15662;49.128;8.520;2022-08-27T09:50:44;12.70;;;11.52;;
28427;SDS011;15662;49.128;8.520;2022-08-27T09:53:25;12.82;;;11.50;;
28427;SDS011;15662;49.128;8.520;2022-08-27T09:56:05;13.35;;;12.00;;
28427;SDS011;15662;49.128;8.520;2022-08-27T10:01:20;13.27;;;11.98;;
28427;SDS011;15662;49.128;8.520;2022-08-27T10:06:36;13.13;;;11.82;;
28427;SDS011;15662;49.128;8.520;2022-08-27T10:15:08;12.93;;;11.63;;
28427;SDS011;15662;49.128;8.520;2022-08-27T10:17:55;13.88;;;11.23;;
28427;SDS011;15662;49.128;8.520;2022-08-27T10:26:39;12.13;;;10.90;;
28427;SDS011;15662;49.128;8.520;2022-08-27T10:29:36;12.10;;;10.98;;
28427;SDS011;15662;49.128;8.520;2022-08-27T10:38:22;12.30;;;11.13;;
28427;SDS011;15662;49.128;8.520;2022-08-27T10:55:22;12.85;;;11.55;;
28427;SDS011;15662;49.128;8.520;2022-08-27T11:01:12;12.98;;;11.77;;
28427;SDS011;15662;49.128;8.520;2022-08-27T11:09:18;12.80;;;11.02;;
28427;SDS011;15662;49.128;8.520;2022-08-27T11:11:54;12.43;;;11.32;;
28427;SDS011;15662;49.128;8.520;2022-08-27T11:17:59;11.13;;;10.18;;
28427;SDS011;15662;49.128;8.520;2022-08-27T11:20:58;11.82;;;10.70;;
28427;SDS011;15662;49.128;8.520;2022-08-27T11:24:20;12.20;;;11.10;;
28427;SDS011;15662;49.128;8.520;2022-08-27T11:27:07;11.75;;;10.68;;
28427;SDS011;15662;49.128;8.520;2022-08-27T11:35:50;11.70;;;10.60;;
28427;SDS011;15662;49.128;8.520;2022-08-27T11:42:42;11.85;;;10.65;;
28427;SDS011;15662;49.128;8.520;2022-08-27T11:45:26;11.75;;;10.70;;
28427;SDS011;15662;49.128;8.520;2022-08-27T11:48:21;10.93;;;9.93;;
28427;SDS011;15662;49.128;8.520;2022-08-27T11:51:00;11.93;;;10.70;;
28427;SDS011;15662;49.128;8.520;2022-08-27T11:53:39;12.65;;;11.35;;
28427;SDS011;15662;49.128;8.520;2022-08-27T12:01:56;12.55;;;11.38;;
28427;SDS011;15662;49.128;8.520;2022-08-27T12:05:06;12.27;;;11.07;;
28427;SDS011;15662;49.128;8.520;2022-08-27T12:07:53;11.82;;;10.80;;
28427;SDS011;15662;49.128;8.520;2022-08-27T12:10:36;12.30;;;11.10;;
28427;SDS011;15662;49.128;8.520;2022-08-27T12:13:56;12.30;;;10.75;;
28427;SDS011;15662;49.128;8.520;2022-08-27T12:32:35;11.85;;;10.65;;
28427;SDS011;15662;49.128;8.520;2022-08-27T12:35:17;11.70;;;10.60;;
28427;SDS011;15662;49.128;8.520;2022-08-27T12:43:22;11.60;;;10.50;;
28427;SDS011;15662;49.128;8.520;2022-08-27T12:45:56;13.07;;;10.85;;
28427;SDS011;15662;49.128;8.520;2022-08-27T12:48:56;10.68;;;9.57;;
28427;SDS011;15662;49.128;8.520;2022-08-27T12:51:49;11.07;;;10.00;;
28427;SDS011;15662;49.128;8.520;2022-08-27T12:57:21;11.27;;;10.27;;
28427;SDS011;15662;49.128;8.520;2022-08-27T13:03:19;12.40;;;11.10;;
28427;SDS011;15662;49.128;8.520;2022-08-27T13:05:41;11.38;;;10.35;;
28427;SDS011;15662;49.128;8.520;2022-08-27T13:08:26;12.68;;;11.38;;
28427;SDS011;15662;49.128;8.520;2022-08-27T13:14:04;12.38;;;11.13;;
28427;SDS011;15662;49.128;8.520;2022-08-27T13:16:50;11.85;;;10.77;;
28427;SDS011;15662;49.128;8.520;2022-08-27T13:22:00;12.05;;;10.38;;
28427;SDS011;15662;49.128;8.520;2022-08-27T13:24:44;12.27;;;11.02;;
28427;SDS011;15662;49.128;8.520;2022-08-27T13:27:22;11.75;;;10.65;;
28427;SDS011;15662;49.128;8.520;2022-08-27T13:30:02;12.18;;;11.00;;
28427;SDS011;15662;49.128;8.520;2022-08-27T13:32:36;12.73;;;11.45;;
28427;SDS011;15662;49.128;8.520;2022-08-27T13:35:06;11.95;;;10.90;;
28427;SDS011;15662;49.128;8.520;2022-08-27T13:37:40;11.43;;;10.32;;
28427;SDS011;15662;49.128;8.520;2022-08-27T13:44:16;12.93;;;11.18;;
28427;SDS011;15662;49.128;8.520;2022-08-27T13:46:57;11.18;;;10.07;;
28427;SDS011;15662;49.128;8.520;2022-08-27T13:49:34;12.00;;;10.88;;
28427;SDS011;15662;49.128;8.520;2022-08-27T13:55:08;12.50;;;11.20;;
28427;SDS011;15662;49.128;8.520;2022-08-27T13:57:45;12.25;;;11.05;;
28427;SDS011;15662;49.128;8.520;2022-08-27T14:00:24;11.68;;;10.68;;
28427;SDS011;15662;49.128;8.520;2022-08-27T14:02:58;12.57;;;11.27;;
28427;SDS011;15662;49.128;8.520;2022-08-27T14:05:31;12.25;;;11.07;;
28427;SDS011;15662;49.128;8.520;2022-08-27T14:08:10;12.43;;;11.27;;
28427;SDS011;15662;49.128;8.520;2022-08-27T14:10:45;12.30;;;11.10;;
28427;SDS011;15662;49.128;8.520;2022-08-27T14:13:41;13.48;;;12.18;;
28427;SDS011;15662;49.128;8.520;2022-08-27T14:16:34;12.13;;;11.02;;
28427;SDS011;15662;49.128;8.520;2022-08-27T14:22:02;11.38;;;10.20;;
28427;SDS011;15662;49.128;8.520;2022-08-27T14:24:33;12.00;;;10.90;;
28427;SDS011;15662;49.128;8.520;2022-08-27T14:27:03;12.23;;;11.07;;
28427;SDS011;15662;49.128;8.520;2022-08-27T14:29:36;11.63;;;10.43;;
28427;SDS011;15662;49.128;8.520;2022-08-27T14:32:05;12.88;;;11.57;;
28427;SDS011;15662;49.128;8.520;2022-08-27T14:34:34;18.05;;;11.38;;
28427;SDS011;15662;49.128;8.520;2022-08-27T14:37:03;12.27;;;11.10;;
28427;SDS011;15662;49.128;8.520;2022-08-27T14:39:33;11.48;;;10.43;;
28427;SDS011;15662;49.128;8.520;2022-08-27T14:42:02;12.50;;;11.15;;
28427;SDS011;15662;49.128;8.520;2022-08-27T14:44:32;11.05;;;9.95;;
28427;SDS011;15662;49.128;8.520;2022-08-27T14:47:00;12.30;;;11.05;;
28427;SDS011;15662;49.128;8.520;2022-08-27T14:49:36;10.98;;;9.88;;
28427;SDS011;15662;49.128;8.520;2022-08-27T14:52:11;11.07;;;9.98;;
28427;SDS011;15662;49.128;8.520;2022-08-27T14:54:42;11.98;;;10.88;;
28427;SDS011;15662;49.128;8.520;2022-08-27T14:57:12;11.80;;;10.60;;
28427;SDS011;15662;49.128;8.520;2022-08-27T14:59:41;14.13;;;10.85;;
28427;SDS011;15662;49.128;8.520;2022-08-27T15:02:11;10.82;;;9.82;;
28427;SDS011;15662;49.128;8.520;2022-08-27T15:04:41;11.43;;;10.40;;
28427;SDS011;15662;49.128;8.520;2022-08-27T15:07:14;11.88;;;10.68;;
28427;SDS011;15662;49.128;8.520;2022-08-27T15:09:44;11.13;;;10.10;;
28427;SDS011;15662;49.128;8.520;2022-08-27T15:12:13;12.80;;;10.23;;
28427;SDS011;15662;49.128;8.520;2022-08-27T15:14:52;11.93;;;10.73;;
28427;SDS011;15662;49.128;8.520;2022-08-27T15:17:21;13.05;;;11.70;;
28427;SDS011;15662;49.128;8.520;2022-08-27T15:20:05;12.57;;;11.30;;
28427;SDS011;15662;49.128;8.520;2022-08-27T15:22:47;12.05;;;10.77;;
28427;SDS011;15662;49.128;8.520;2022-08-27T15:25:19;12.52;;;11.38;;
28427;SDS011;15662;49.128;8.520;2022-08-27T15:27:49;11.98;;;10.80;;
28427;SDS011;15662;49.128;8.520;2022-08-27T15:30:22;13.65;;;11.82;;
28427;SDS011;15662;49.128;8.520;2022-08-27T15:32:54;11.60;;;10.43;;
28427;SDS011;15662;49.128;8.520;2022-08-27T15:35:23;12.35;;;11.15;;
28427;SDS011;15662;49.128;8.520;2022-08-27T15:37:54;9.85;;;9.00;;
28427;SDS011;15662;49.128;8.520;2022-08-27T15:40:25;10.80;;;9.82;;
28427;SDS011;15662;49.128;8.520;2022-08-27T15:42:59;10.60;;;9.55;;
28427;SDS011;15662;49.128;8.520;2022-08-27T15:45:31;10.95;;;9.98;;
28427;SDS011;15662;49.128;8.520;2022-08-27T15:48:00;10.48;;;9.35;;
28427;SDS011;15662;49.128;8.520;2022-08-27T15:50:29;9.32;;;8.43;;
28427;SDS011;15662;49.128;8.520;2022-08-27T15:53:04;9.43;;;8.63;;
28427;SDS011;15662;49.128;8.520;2022-08-27T15:55:35;10.00;;;8.50;;
28427;SDS011;15662;49.128;8.520;2022-08-27T15:58:08;8.88;;;8.18;;
28427;SDS011;15662;49.128;8.520;2022-08-27T16:00:37;8.73;;;7.90;;
28427;SDS011;15662;49.128;8.520;2022-08-27T16:03:09;9.20;;;8.30;;
28427;SDS011;15662;49.128;8.520;2022-08-27T16:05:40;8.70;;;7.90;;
28427;SDS011;15662;49.128;8.520;2022-08-27T16:08:12;8.95;;;8.07;;
28427;SDS011;15662;49.128;8.520;2022-08-27T16:10:42;8.57;;;7.78;;
28427;SDS011;15662;49.128;8.520;2022-08-27T16:13:10;8.32;;;7.15;;
28427;SDS011;15662;49.128;8.520;2022-08-27T16:15:38;8.23;;;7.47;;
28427;SDS011;15662;49.128;8.520;2022-08-27T16:18:09;8.07;;;7.45;;
28427;SDS011;15662;49.128;8.520;2022-08-27T16:20:38;8.45;;;7.10;;
28427;SDS011;15662;49.128;8.520;2022-08-27T16:23:07;7.63;;;7.05;;
28427;SDS011;15662;49.128;8.520;2022-08-27T16:25:36;7.20;;;6.45;;
28427;SDS011;15662;49.128;8.520;2022-08-27T16:28:05;7.90;;;6.97;;
28427;SDS011;15662;49.128;8.520;2022-08-27T16:30:34;8.13;;;7.40;;
28427;SDS011;15662;49.128;8.520;2022-08-27T16:33:03;8.07;;;7.38;;
28427;SDS011;15662;49.128;8.520;2022-08-27T16:35:31;7.22;;;6.53;;
28427;SDS011;15662;49.128;8.520;2022-08-27T16:38:00;7.55;;;6.85;;
28427;SDS011;15662;49.128;8.520;2022-08-27T16:40:30;7.90;;;7.15;;
28427;SDS011;15662;49.128;8.520;2022-08-27T16:43:05;8.10;;;7.07;;
28427;SDS011;15662;49.128;8.520;2022-08-27T16:45:34;8.00;;;7.20;;
28427;SDS011;15662;49.128;8.520;2022-08-27T16:48:03;7.88;;;6.97;;
28427;SDS011;15662;49.128;8.520;2022-08-27T16:50:49;7.82;;;7.00;;
28427;SDS011;15662;49.128;8.520;2022-08-27T16:53:22;8.05;;;7.25;;
28427;SDS011;15662;49.128;8.520;2022-08-27T16:55:51;7.32;;;6.72;;
28427;SDS011;15662;49.128;8.520;2022-08-27T17:00:54;9.15;;;8.25;;
28427;SDS011;15662;49.128;8.520;2022-08-27T17:03:27;7.63;;;6.82;;
28427;SDS011;15662;49.128;8.520;2022-08-27T17:06:29;9.10;;;7.13;;
28427;SDS011;15662;49.128;8.520;2022-08-27T17:08:59;7.55;;;6.95;;
28427;SDS011;15662;49.128;8.520;2022-08-27T17:11:31;7.78;;;7.07;;
28427;SDS011;15662;49.128;8.520;2022-08-27T17:14:02;7.75;;;7.00;;